Oakland Acres, Iowa
Current Conditions -  °F | °C
As of 2:15 PM on Sunday 23 Nov 2014 (Local Time) from KGGI Reporting Station
Moderate Rain Moderate Rain  
Wind Chill: 50°   Ceiling: 200
Heat Index: 50°   Visibility: 5mi
Dew Point: 49°   Wind: 3mph
Humidity: 97%   Direction: 130°SE
Pressure: 29.35"   Gusts: NA
Location:  41.7319°N, 92.7662°W
Report Text: KGGI 232015Z AUTO 13003KT 5SM RA BKN002 OVC008 10/10 A2935 RMK AO2 P0001 T01010097
Loading
Personal Weather Stations






























Interactive Weather Map New forecast layout! Learn more

10-Day Weather Forecast

Advertisements
Track Severe Weather on mobile